createdAt,value
2019-03-27T00:00:13.175Z,7.20
2019-03-27T00:01:13.164Z,7.13
2019-03-27T00:02:13.152Z,7.21
2019-03-27T00:03:13.143Z,7.25
2019-03-27T00:04:13.134Z,7.21
2019-03-27T00:05:13.138Z,7.23
2019-03-27T00:06:13.108Z,7.27
2019-03-27T00:07:13.098Z,7.25
2019-03-27T00:08:13.092Z,7.17
2019-03-27T00:09:13.101Z,7.20
2019-03-27T00:10:13.061Z,7.23
2019-03-27T00:11:16.036Z,7.21
2019-03-27T00:12:13.040Z,7.24
2019-03-27T00:13:13.029Z,7.27
2019-03-27T00:14:13.017Z,7.21
2019-03-27T00:15:13.928Z,7.23
2019-03-27T00:16:12.995Z,7.25
2019-03-27T00:17:12.984Z,7.24
2019-03-27T00:18:12.974Z,7.28
2019-03-27T00:19:12.961Z,7.25
2019-03-27T00:20:12.955Z,7.30
2019-03-27T00:21:12.954Z,7.28
2019-03-27T00:22:12.926Z,7.23
2019-03-27T00:23:12.917Z,7.23
2019-03-27T00:24:12.905Z,7.27
2019-03-27T00:25:12.894Z,7.37
2019-03-27T00:26:12.910Z,7.30
2019-03-27T00:27:12.876Z,7.32
2019-03-27T00:28:12.863Z,7.24
2019-03-27T00:29:12.849Z,7.24
2019-03-27T00:30:12.840Z,7.34
2019-03-27T00:31:12.828Z,7.24
2019-03-27T00:32:12.846Z,7.28
2019-03-27T00:33:12.804Z,7.24
2019-03-27T00:34:12.794Z,7.28
2019-03-27T00:35:12.783Z,7.27
2019-03-27T00:36:12.770Z,7.27
2019-03-27T00:37:12.766Z,7.27
2019-03-27T00:38:12.779Z,7.28
2019-03-27T00:39:12.738Z,7.30
2019-03-27T00:40:12.741Z,7.25
2019-03-27T00:41:12.718Z,7.35
2019-03-27T00:42:12.704Z,7.17
2019-03-27T00:43:13.685Z,7.30
2019-03-27T00:44:12.711Z,7.31
2019-03-27T00:45:25.411Z,7.25
2019-03-27T00:46:13.727Z,7.27
2019-03-27T00:47:12.649Z,7.32
2019-03-27T00:48:12.647Z,7.20
2019-03-27T00:49:12.623Z,7.23
2019-03-27T00:50:12.638Z,7.27
2019-03-27T00:51:12.601Z,7.27
2019-03-27T00:52:12.589Z,7.24
2019-03-27T00:53:12.578Z,7.21
2019-03-27T00:54:12.567Z,7.24
2019-03-27T00:55:12.554Z,7.21
2019-03-27T00:56:12.560Z,7.24
2019-03-27T00:57:12.531Z,7.20
2019-03-27T00:58:12.523Z,7.20
2019-03-27T00:59:12.510Z,7.17
2019-03-27T01:00:12.502Z,7.28
2019-03-27T01:01:12.522Z,7.30
2019-03-27T01:02:12.476Z,7.25
2019-03-27T01:03:12.518Z,7.24
2019-03-27T01:04:12.454Z,7.23
2019-03-27T01:05:12.444Z,7.25
2019-03-27T01:06:12.433Z,7.20
2019-03-27T01:07:12.447Z,7.17
2019-03-27T01:08:12.410Z,7.25
2019-03-27T01:09:12.406Z,7.13
2019-03-27T01:10:12.387Z,7.17
2019-03-27T01:11:12.383Z,7.21
2019-03-27T01:12:12.364Z,7.13
2019-03-27T01:13:12.368Z,7.20
2019-03-27T01:14:12.342Z,7.17
2019-03-27T01:15:12.329Z,7.23
2019-03-27T01:16:12.318Z,7.16
2019-03-27T01:17:12.308Z,7.20
2019-03-27T01:18:12.328Z,7.20
2019-03-27T01:19:12.285Z,7.16
2019-03-27T01:20:12.275Z,7.23
2019-03-27T01:21:12.262Z,7.20
2019-03-27T01:22:12.252Z,7.23
2019-03-27T01:23:12.239Z,7.21
2019-03-27T01:24:12.258Z,7.21
2019-03-27T01:25:12.219Z,7.20
2019-03-27T01:26:12.209Z,7.25
2019-03-27T01:27:12.193Z,7.28
2019-03-27T01:28:12.187Z,7.20
2019-03-27T01:29:12.196Z,7.30
2019-03-27T01:30:12.174Z,7.27
2019-03-27T01:31:12.148Z,7.20
2019-03-27T01:32:12.137Z,7.27
2019-03-27T01:33:12.126Z,7.20
2019-03-27T01:34:12.116Z,7.20
2019-03-27T01:35:12.135Z,7.21
2019-03-27T01:36:12.093Z,7.21
2019-03-27T01:37:12.084Z,7.15
2019-03-27T01:38:12.068Z,7.24
2019-03-27T01:39:12.060Z,7.12
2019-03-27T01:40:12.047Z,7.21
2019-03-27T01:41:12.063Z,7.10
2019-03-27T01:42:12.023Z,7.13
2019-03-27T01:43:12.016Z,7.06
2019-03-27T01:44:12.001Z,7.13
2019-03-27T01:45:11.990Z,7.07
2019-03-27T01:46:11.978Z,7.05
2019-03-27T01:47:11.992Z,6.95
2019-03-27T01:48:11.957Z,7.07
2019-03-27T01:49:11.981Z,7.09
2019-03-27T01:50:21.241Z,7.03
2019-03-27T01:51:20.278Z,6.97
2019-03-27T01:52:19.568Z,7.09
2019-03-27T01:53:20.355Z,7.06
2019-03-27T01:54:21.395Z,7.09
2019-03-27T01:55:20.434Z,7.09
2019-03-27T01:56:21.471Z,7.06
2019-03-27T01:57:11.852Z,7.15
2019-03-27T01:58:11.858Z,7.17
2019-03-27T01:59:11.856Z,7.06
2019-03-27T02:00:11.820Z,7.17
2019-03-27T02:01:11.809Z,7.15
2019-03-27T02:02:11.798Z,7.20
2019-03-27T02:03:11.808Z,7.21
2019-03-27T02:04:11.773Z,7.17
2019-03-27T02:05:11.762Z,7.20
2019-03-27T02:06:11.751Z,7.16
2019-03-27T02:07:11.739Z,7.15
2019-03-27T02:08:11.821Z,7.24
2019-03-27T02:09:11.717Z,7.25
2019-03-27T02:10:11.704Z,7.23
2019-03-27T02:11:11.696Z,7.27
2019-03-27T02:12:11.684Z,7.20
2019-03-27T02:13:11.678Z,7.13
2019-03-27T02:14:11.689Z,7.05
2019-03-27T02:15:11.651Z,7.07
2019-03-27T02:16:11.644Z,7.06
2019-03-27T02:17:11.627Z,7.07
2019-03-27T02:18:11.619Z,7.10
2019-03-27T02:19:11.609Z,7.10
2019-03-27T02:20:11.610Z,7.07
2019-03-27T02:21:11.582Z,7.07
2019-03-27T02:22:11.570Z,7.03
2019-03-27T02:23:11.562Z,7.15
2019-03-27T02:24:11.548Z,7.15
2019-03-27T02:25:11.567Z,7.20
2019-03-27T02:26:11.527Z,7.15
2019-03-27T02:27:11.514Z,7.21
2019-03-27T02:28:11.502Z,7.10
2019-03-27T02:29:11.491Z,7.16
2019-03-27T02:30:11.485Z,7.20
2019-03-27T02:31:11.489Z,7.13
2019-03-27T02:32:11.466Z,7.09
2019-03-27T02:33:11.446Z,7.07
2019-03-27T02:34:11.479Z,6.99
2019-03-27T02:35:11.432Z,7.05
2019-03-27T02:36:11.448Z,7.05
2019-03-27T02:37:11.401Z,7.06
2019-03-27T02:38:11.390Z,7.03
2019-03-27T02:39:11.383Z,6.95
2019-03-27T02:40:11.371Z,7.05
2019-03-27T02:41:11.355Z,6.95
2019-03-27T02:42:11.370Z,6.97
2019-03-27T02:43:11.336Z,7.07
2019-03-27T02:44:11.406Z,6.92
2019-03-27T02:45:11.326Z,7.02
2019-03-27T02:46:23.658Z,6.98
2019-03-27T02:47:12.313Z,7.05
2019-03-27T02:48:13.974Z,7.03
2019-03-27T02:49:11.265Z,6.95
2019-03-27T02:50:11.259Z,6.94
2019-03-27T02:51:11.245Z,6.94
2019-03-27T02:52:11.233Z,6.97
2019-03-27T02:53:11.246Z,7.03
2019-03-27T02:54:11.210Z,6.94
2019-03-27T02:55:11.209Z,7.07
2019-03-27T02:56:11.185Z,7.09
2019-03-27T02:57:11.176Z,7.06
2019-03-27T02:58:11.168Z,7.02
2019-03-27T02:59:11.170Z,7.02
2019-03-27T03:00:11.166Z,7.03
2019-03-27T03:01:11.135Z,7.03
2019-03-27T03:02:11.119Z,6.94
2019-03-27T03:03:11.112Z,6.95
2019-03-27T03:04:11.124Z,7.03
2019-03-27T03:05:11.114Z,7.03
2019-03-27T03:06:11.075Z,7.05
2019-03-27T03:07:11.062Z,7.06
2019-03-27T03:08:11.051Z,7.03
2019-03-27T03:09:11.039Z,7.05
2019-03-27T03:10:11.045Z,7.09
2019-03-27T03:11:11.015Z,7.09
2019-03-27T03:12:11.004Z,7.09
2019-03-27T03:13:10.995Z,7.05
2019-03-27T03:14:10.984Z,7.09
2019-03-27T03:15:11.005Z,7.05
2019-03-27T03:16:10.960Z,7.06
2019-03-27T03:17:10.952Z,7.03
2019-03-27T03:18:10.945Z,7.02
2019-03-27T03:19:10.924Z,6.99
2019-03-27T03:20:10.930Z,7.09
2019-03-27T03:21:10.916Z,6.98
2019-03-27T03:22:10.896Z,6.95
2019-03-27T03:23:10.897Z,6.97
2019-03-27T03:24:10.881Z,6.95
2019-03-27T03:25:10.877Z,7.05
2019-03-27T03:26:10.852Z,6.98
2019-03-27T03:27:10.832Z,7.06
2019-03-27T03:28:10.823Z,7.03
2019-03-27T03:29:10.810Z,7.09
2019-03-27T03:30:10.833Z,7.05
2019-03-27T03:31:10.790Z,7.07
2019-03-27T03:32:10.781Z,7.05
2019-03-27T03:33:10.773Z,7.09
2019-03-27T03:34:10.763Z,7.13
2019-03-27T03:35:10.760Z,7.06
2019-03-27T03:36:10.749Z,7.10
2019-03-27T03:37:10.722Z,7.07
2019-03-27T03:38:10.715Z,7.05
2019-03-27T03:39:10.697Z,7.07
2019-03-27T03:40:10.684Z,7.05
2019-03-27T03:41:10.709Z,7.06
2019-03-27T03:42:10.665Z,7.06
2019-03-27T03:43:10.654Z,7.09
2019-03-27T03:44:10.643Z,7.10
2019-03-27T03:45:10.627Z,7.05
2019-03-27T03:46:10.619Z,7.07
2019-03-27T03:47:10.624Z,7.05
2019-03-27T03:48:10.599Z,7.06
2019-03-27T03:49:10.584Z,7.06
2019-03-27T03:50:10.573Z,7.06
2019-03-27T03:51:10.563Z,7.07
2019-03-27T03:52:10.567Z,7.05
2019-03-27T03:53:10.540Z,7.05
2019-03-27T03:54:10.527Z,6.99
2019-03-27T03:55:10.517Z,6.97
2019-03-27T03:56:10.540Z,6.97
2019-03-27T03:57:10.493Z,6.92
2019-03-27T03:58:10.482Z,7.02
2019-03-27T03:59:10.471Z,6.94
2019-03-27T04:00:10.463Z,6.95
2019-03-27T04:01:10.449Z,6.89
2019-03-27T04:02:10.456Z,6.94
2019-03-27T04:03:10.426Z,6.87
2019-03-27T04:04:10.417Z,6.94
2019-03-27T04:05:10.409Z,6.91
2019-03-27T04:06:10.396Z,6.89
2019-03-27T04:07:10.397Z,6.87
2019-03-27T04:08:10.370Z,6.89
2019-03-27T04:09:10.357Z,6.87
2019-03-27T04:10:10.347Z,6.92
2019-03-27T04:11:10.337Z,6.94
2019-03-27T04:12:10.362Z,6.92
2019-03-27T04:13:10.311Z,6.91
2019-03-27T04:14:10.303Z,6.89
2019-03-27T04:15:10.293Z,6.91
2019-03-27T04:16:10.287Z,6.91
2019-03-27T04:17:17.499Z,6.84
2019-03-27T04:18:11.272Z,6.87
2019-03-27T04:19:10.246Z,6.85
2019-03-27T04:20:10.235Z,6.87
2019-03-27T04:21:10.228Z,6.89
2019-03-27T04:22:10.222Z,6.91
2019-03-27T04:23:10.220Z,6.92
2019-03-27T04:24:10.190Z,6.94
2019-03-27T04:25:10.186Z,6.95
2019-03-27T04:26:10.917Z,6.97
2019-03-27T04:27:10.155Z,6.97
2019-03-27T04:28:10.174Z,6.97
2019-03-27T04:29:10.135Z,6.94
2019-03-27T04:30:10.121Z,6.98
2019-03-27T04:31:10.113Z,6.98
2019-03-27T04:32:10.104Z,6.95
2019-03-27T04:33:10.091Z,6.95
2019-03-27T04:34:10.094Z,6.95
2019-03-27T04:35:10.069Z,6.94
2019-03-27T04:36:10.056Z,6.94
2019-03-27T04:37:10.042Z,7.02
2019-03-27T04:38:10.036Z,6.94
2019-03-27T04:39:10.063Z,7.03
2019-03-27T04:40:10.010Z,7.09
2019-03-27T04:41:09.998Z,7.06
2019-03-27T04:42:09.988Z,7.07
2019-03-27T04:43:09.977Z,7.07
2019-03-27T04:44:09.992Z,7.03
2019-03-27T04:45:09.961Z,7.03
2019-03-27T04:46:09.941Z,7.05
2019-03-27T04:47:09.936Z,7.06
2019-03-27T04:48:09.920Z,7.06
2019-03-27T04:49:09.912Z,6.97
2019-03-27T04:50:09.914Z,7.05
2019-03-27T04:51:09.887Z,7.02
2019-03-27T04:52:09.875Z,7.06
2019-03-27T04:53:09.862Z,7.03
2019-03-27T04:54:09.852Z,7.09
2019-03-27T04:55:09.868Z,7.10
2019-03-27T04:56:09.828Z,7.05
2019-03-27T04:57:09.817Z,7.07
2019-03-27T04:58:09.806Z,7.05
2019-03-27T04:59:09.797Z,7.09
2019-03-27T05:00:09.868Z,7.10
2019-03-27T05:01:09.790Z,7.09
2019-03-27T05:02:09.763Z,7.06
2019-03-27T05:03:09.754Z,7.03
2019-03-27T05:04:09.744Z,7.07
2019-03-27T05:05:09.730Z,7.03
2019-03-27T05:06:09.731Z,7.09
2019-03-27T05:07:09.706Z,7.07
2019-03-27T05:08:09.696Z,7.09
2019-03-27T05:09:09.685Z,7.06
2019-03-27T05:10:09.673Z,7.09
2019-03-27T05:11:09.690Z,7.13
2019-03-27T05:12:09.653Z,7.03
2019-03-27T05:13:09.642Z,7.06
2019-03-27T05:14:09.628Z,7.06
2019-03-27T05:15:09.614Z,7.09
2019-03-27T05:16:09.606Z,7.15
2019-03-27T05:17:09.619Z,7.06
2019-03-27T05:18:09.588Z,7.06
2019-03-27T05:19:09.571Z,7.13
2019-03-27T05:20:09.562Z,7.20
2019-03-27T05:21:09.550Z,7.23
2019-03-27T05:22:09.538Z,7.13
2019-03-27T05:23:09.544Z,7.15
2019-03-27T05:24:09.515Z,7.15
2019-03-27T05:25:09.506Z,7.27
2019-03-27T05:26:09.493Z,7.17
2019-03-27T05:27:09.483Z,7.28
2019-03-27T05:28:09.489Z,7.24
2019-03-27T05:29:09.460Z,7.17
2019-03-27T05:30:09.456Z,7.15
2019-03-27T05:31:09.437Z,7.09
2019-03-27T05:32:09.426Z,7.10
2019-03-27T05:33:09.433Z,7.16
2019-03-27T05:34:09.404Z,7.12
2019-03-27T05:35:09.394Z,7.13
2019-03-27T05:36:09.385Z,7.09
2019-03-27T05:37:09.372Z,7.09
2019-03-27T05:38:09.393Z,7.09
2019-03-27T05:39:09.347Z,7.05
2019-03-27T05:40:09.336Z,7.12
2019-03-27T05:41:09.325Z,7.10
2019-03-27T05:42:09.314Z,7.06
2019-03-27T05:43:09.301Z,7.05
2019-03-27T05:44:09.318Z,6.95
2019-03-27T05:45:09.281Z,7.03
2019-03-27T05:46:09.270Z,6.99
2019-03-27T05:47:09.264Z,7.02
2019-03-27T05:48:09.245Z,7.05
2019-03-27T05:49:09.235Z,7.05
2019-03-27T05:50:09.239Z,7.03
2019-03-27T05:51:09.219Z,7.05
2019-03-27T05:52:09.205Z,7.06
2019-03-27T05:53:09.190Z,7.12
2019-03-27T05:54:09.180Z,7.12
2019-03-27T05:55:09.184Z,7.03
2019-03-27T05:56:09.156Z,7.07
2019-03-27T05:57:09.146Z,7.16
2019-03-27T05:58:09.133Z,7.20
2019-03-27T05:59:09.123Z,7.13
2019-03-27T06:00:09.139Z,7.07
2019-03-27T06:01:09.098Z,7.17
2019-03-27T06:02:09.086Z,7.21
2019-03-27T06:03:09.076Z,7.13
2019-03-27T06:04:09.064Z,7.16
2019-03-27T06:05:09.062Z,7.21
2019-03-27T06:06:09.072Z,7.21
2019-03-27T06:07:09.031Z,7.17
2019-03-27T06:08:09.021Z,7.25
2019-03-27T06:09:09.007Z,7.25
2019-03-27T06:10:08.999Z,7.25
2019-03-27T06:11:08.986Z,7.24
2019-03-27T06:12:09.002Z,7.25
2019-03-27T06:13:08.962Z,7.39
2019-03-27T06:14:08.951Z,7.37
2019-03-27T06:15:08.941Z,7.39
2019-03-27T06:16:08.931Z,7.35
2019-03-27T06:17:08.918Z,7.31
2019-03-27T06:18:13.343Z,7.50
2019-03-27T06:19:08.895Z,7.50
2019-03-27T06:20:08.887Z,7.53
2019-03-27T06:21:08.872Z,7.50
2019-03-27T06:22:08.863Z,7.57
2019-03-27T06:23:08.866Z,7.50
2019-03-27T06:24:08.840Z,7.46
2019-03-27T06:25:08.827Z,7.49
2019-03-27T06:26:08.821Z,7.58
2019-03-27T06:27:08.806Z,7.50
2019-03-27T06:28:08.823Z,7.57
2019-03-27T06:29:08.783Z,7.55
2019-03-27T06:30:08.773Z,7.61
2019-03-27T06:31:08.758Z,7.60
2019-03-27T06:32:08.752Z,7.61
2019-03-27T06:33:08.741Z,7.57
2019-03-27T06:34:17.813Z,7.55
2019-03-27T06:35:08.714Z,7.60
2019-03-27T06:36:17.093Z,7.58
2019-03-27T06:37:08.692Z,7.55
2019-03-27T06:38:08.680Z,7.58
2019-03-27T06:39:08.700Z,7.63
2019-03-27T06:40:08.660Z,7.58
2019-03-27T06:41:08.648Z,7.64
2019-03-27T06:42:08.637Z,7.74
2019-03-27T06:43:08.624Z,7.77
2019-03-27T06:44:08.613Z,7.71
2019-03-27T06:45:08.619Z,7.74
2019-03-27T06:46:08.590Z,7.87
2019-03-27T06:47:08.580Z,7.83
2019-03-27T06:48:08.567Z,7.85
2019-03-27T06:49:08.559Z,7.86
2019-03-27T06:50:08.561Z,7.90
2019-03-27T06:51:08.536Z,7.85
2019-03-27T06:52:08.523Z,7.86
2019-03-27T06:53:08.512Z,7.83
2019-03-27T06:54:08.506Z,7.83
2019-03-27T06:55:08.519Z,7.90
2019-03-27T06:56:08.481Z,7.90
2019-03-27T06:57:08.470Z,7.93
2019-03-27T06:58:08.455Z,7.87
2019-03-27T06:59:08.446Z,7.87
2019-03-27T07:00:08.433Z,7.86
2019-03-27T07:01:08.450Z,7.92
2019-03-27T07:02:08.411Z,7.80
2019-03-27T07:03:08.400Z,7.86
2019-03-27T07:04:10.893Z,7.86
2019-03-27T07:05:08.377Z,7.97
2019-03-27T07:06:08.366Z,7.92
2019-03-27T07:07:08.373Z,8.00
2019-03-27T07:08:08.349Z,8.04
2019-03-27T07:09:08.332Z,7.98
2019-03-27T07:10:08.321Z,7.87
2019-03-27T07:11:08.310Z,8.02
2019-03-27T07:12:20.552Z,8.00
2019-03-27T07:13:09.286Z,8.04
2019-03-27T07:14:08.279Z,8.01
2019-03-27T07:15:08.267Z,7.97
2019-03-27T07:16:08.254Z,8.01
2019-03-27T07:17:08.244Z,8.07
2019-03-27T07:18:08.263Z,8.08
2019-03-27T07:19:08.222Z,8.12
2019-03-27T07:20:16.635Z,8.18
2019-03-27T07:21:08.201Z,8.08
2019-03-27T07:22:08.188Z,8.16
2019-03-27T07:23:08.177Z,8.12
2019-03-27T07:24:08.182Z,8.10
2019-03-27T07:25:08.154Z,8.12
2019-03-27T07:26:08.143Z,8.12
2019-03-27T07:27:08.131Z,8.15
2019-03-27T07:28:08.121Z,8.02
2019-03-27T07:29:08.146Z,8.11
2019-03-27T07:30:08.098Z,8.10
2019-03-27T07:31:08.092Z,8.11
2019-03-27T07:32:08.077Z,8.10
2019-03-27T07:33:08.070Z,8.11
2019-03-27T07:34:08.054Z,8.08
2019-03-27T07:35:08.061Z,8.10
2019-03-27T07:36:08.031Z,8.07
2019-03-27T07:37:08.022Z,8.08
2019-03-27T07:38:08.008Z,8.10
2019-03-27T07:39:11.144Z,8.11
2019-03-27T07:40:08.012Z,8.15
2019-03-27T07:41:07.977Z,8.08
2019-03-27T07:42:07.965Z,8.12
2019-03-27T07:43:07.954Z,8.02
2019-03-27T07:44:07.944Z,8.05
2019-03-27T07:45:07.931Z,7.98
2019-03-27T07:46:07.938Z,8.12
2019-03-27T07:47:07.918Z,8.16
2019-03-27T07:48:07.900Z,8.12
2019-03-27T07:49:07.887Z,8.16
2019-03-27T07:50:07.875Z,8.19
2019-03-27T07:51:07.890Z,8.19
2019-03-27T07:52:07.852Z,8.15
2019-03-27T07:53:07.841Z,8.19
2019-03-27T07:54:07.829Z,8.16
2019-03-27T07:55:18.651Z,8.15
2019-03-27T07:56:08.834Z,8.20
2019-03-27T07:57:07.796Z,8.15
2019-03-27T07:58:07.786Z,8.12
2019-03-27T07:59:07.774Z,8.15
2019-03-27T08:00:07.767Z,8.11
2019-03-27T08:01:07.752Z,8.08
2019-03-27T08:02:07.759Z,8.15
2019-03-27T08:03:07.735Z,8.19
2019-03-27T08:04:07.717Z,8.18
2019-03-27T08:05:07.708Z,8.19
2019-03-27T08:06:07.694Z,8.15
2019-03-27T08:07:07.701Z,8.10
2019-03-27T08:08:07.674Z,8.15
2019-03-27T08:09:07.660Z,8.12
2019-03-27T08:10:07.650Z,8.16
2019-03-27T08:11:07.640Z,8.08
2019-03-27T08:12:07.668Z,8.16
2019-03-27T08:13:07.619Z,8.16
2019-03-27T08:14:07.606Z,8.12
2019-03-27T08:15:07.597Z,8.18
2019-03-27T08:16:07.587Z,8.10
2019-03-27T08:17:07.592Z,8.18
2019-03-27T08:18:07.570Z,8.12
2019-03-27T08:19:08.229Z,8.18
2019-03-27T08:20:07.537Z,8.16
2019-03-27T08:21:07.525Z,8.20
2019-03-27T08:22:07.545Z,8.25
2019-03-27T08:23:07.505Z,8.25
2019-03-27T08:24:07.493Z,8.23
2019-03-27T08:25:07.482Z,8.22
2019-03-27T08:26:07.472Z,8.20
2019-03-27T08:27:07.462Z,8.23
2019-03-27T08:28:07.480Z,8.25
2019-03-27T08:29:07.440Z,8.28
2019-03-27T08:30:07.433Z,8.20
2019-03-27T08:31:07.414Z,8.26
2019-03-27T08:32:07.407Z,8.29
2019-03-27T08:33:07.392Z,8.34
2019-03-27T08:34:07.400Z,8.34
2019-03-27T08:35:07.369Z,8.38
2019-03-27T08:36:07.363Z,8.45
2019-03-27T08:37:07.352Z,8.41
2019-03-27T08:38:07.336Z,8.38
2019-03-27T08:39:07.353Z,8.47
2019-03-27T08:40:07.315Z,8.43
2019-03-27T08:41:07.304Z,8.47
2019-03-27T08:42:07.291Z,8.58
2019-03-27T08:43:20.287Z,8.55
2019-03-27T08:44:08.293Z,8.59
2019-03-27T08:45:07.257Z,8.58
2019-03-27T08:46:07.255Z,8.56
2019-03-27T08:47:07.237Z,8.59
2019-03-27T08:48:07.226Z,8.61
2019-03-27T08:49:20.766Z,8.66
2019-03-27T08:50:08.219Z,8.61
2019-03-27T08:51:07.189Z,8.68
2019-03-27T08:52:07.181Z,8.62
2019-03-27T08:53:07.168Z,8.73
2019-03-27T08:54:07.162Z,8.66
2019-03-27T08:55:07.166Z,8.79
2019-03-27T08:56:07.135Z,8.70
2019-03-27T08:57:07.123Z,8.77
2019-03-27T08:58:07.111Z,8.83
2019-03-27T08:59:07.098Z,8.87
2019-03-27T09:00:07.117Z,8.83
2019-03-27T09:01:07.078Z,8.84
2019-03-27T09:02:07.067Z,8.87
2019-03-27T09:03:07.054Z,8.84
2019-03-27T09:04:07.047Z,8.84
2019-03-27T09:05:07.034Z,8.80
2019-03-27T09:06:07.051Z,8.76
2019-03-27T09:07:07.009Z,8.87
2019-03-27T09:08:07.002Z,8.79
2019-03-27T09:09:06.993Z,8.77
2019-03-27T09:10:06.979Z,8.81
2019-03-27T09:11:06.967Z,8.92
2019-03-27T09:12:06.973Z,8.77
2019-03-27T09:13:06.944Z,8.86
2019-03-27T09:14:06.932Z,8.89
2019-03-27T09:15:06.919Z,8.94
2019-03-27T09:16:06.914Z,8.79
2019-03-27T09:17:06.913Z,8.79
2019-03-27T09:18:06.890Z,8.81
2019-03-27T09:19:06.874Z,8.89
2019-03-27T09:20:06.864Z,8.98
2019-03-27T09:21:06.856Z,9.04
2019-03-27T09:22:06.872Z,9.05
2019-03-27T09:23:06.833Z,8.99
2019-03-27T09:24:06.819Z,9.05
2019-03-27T09:25:06.809Z,9.15
2019-03-27T09:26:06.796Z,9.14
2019-03-27T09:27:06.786Z,9.14
2019-03-27T09:28:06.802Z,9.26
2019-03-27T09:29:08.401Z,9.24
2019-03-27T09:30:06.751Z,9.29
2019-03-27T09:31:06.740Z,9.28
2019-03-27T09:32:06.732Z,9.35
2019-03-27T09:33:06.718Z,9.38
2019-03-27T09:34:06.722Z,9.42
2019-03-27T09:35:06.694Z,9.42
2019-03-27T09:36:06.863Z,9.50
2019-03-27T09:37:06.674Z,9.50
2019-03-27T09:38:06.663Z,9.57
2019-03-27T09:39:06.664Z,9.54
2019-03-27T09:40:06.640Z,9.65
2019-03-27T09:41:06.628Z,9.64
2019-03-27T09:42:06.617Z,9.64
2019-03-27T09:43:06.604Z,9.74
2019-03-27T09:44:06.621Z,9.75
2019-03-27T09:45:06.580Z,9.76
2019-03-27T09:46:06.569Z,9.68
2019-03-27T09:47:06.588Z,9.72
2019-03-27T09:48:06.547Z,9.71
2019-03-27T09:49:06.534Z,9.69
2019-03-27T09:50:06.539Z,9.79
2019-03-27T09:51:06.513Z,9.83
2019-03-27T09:52:06.501Z,10.05
2019-03-27T09:53:06.496Z,10.17
2019-03-27T09:54:06.478Z,10.23
2019-03-27T09:55:06.495Z,10.30
2019-03-27T09:56:18.525Z,10.56
2019-03-27T09:57:07.443Z,10.68
2019-03-27T09:58:06.433Z,10.79
2019-03-27T09:59:06.425Z,10.82
2019-03-27T10:00:06.414Z,10.85
2019-03-27T10:01:06.426Z,10.89
2019-03-27T10:02:06.390Z,10.79
2019-03-27T10:03:06.377Z,10.73
2019-03-27T10:04:06.371Z,10.71
2019-03-27T10:05:06.353Z,10.78
2019-03-27T10:06:06.346Z,10.78
2019-03-27T10:07:06.348Z,10.60
2019-03-27T10:08:06.321Z,10.63
2019-03-27T10:09:06.308Z,10.68
2019-03-27T10:10:06.299Z,10.68
2019-03-27T10:11:06.288Z,10.81
2019-03-27T10:12:06.291Z,10.76
2019-03-27T10:13:06.264Z,10.63
2019-03-27T10:14:06.251Z,10.63
2019-03-27T10:15:06.240Z,10.64
2019-03-27T10:16:06.228Z,10.76
2019-03-27T10:17:06.246Z,10.74
2019-03-27T10:18:06.206Z,10.85
2019-03-27T10:19:06.195Z,10.88
2019-03-27T10:20:06.187Z,10.91
2019-03-27T10:21:06.172Z,10.92
2019-03-27T10:22:06.163Z,10.89
2019-03-27T10:23:06.175Z,11.07
2019-03-27T10:24:06.137Z,11.04
2019-03-27T10:25:06.127Z,11.09
2019-03-27T10:26:06.115Z,11.00
2019-03-27T10:27:06.106Z,11.04
2019-03-27T10:28:06.100Z,10.94
2019-03-27T10:29:06.096Z,10.97
2019-03-27T10:30:06.076Z,10.89
2019-03-27T10:31:06.059Z,10.85
2019-03-27T10:32:06.048Z,10.86
2019-03-27T10:33:06.036Z,10.78
2019-03-27T10:34:06.045Z,10.73
2019-03-27T10:35:06.015Z,10.78
2019-03-27T10:36:06.009Z,10.73
2019-03-27T10:37:05.991Z,10.70
2019-03-27T10:38:05.981Z,10.70
2019-03-27T10:39:05.999Z,10.64
2019-03-27T10:40:05.957Z,10.59
2019-03-27T10:41:05.948Z,10.56
2019-03-27T10:42:05.935Z,10.55
2019-03-27T10:43:05.923Z,10.42
2019-03-27T10:44:05.913Z,10.40
2019-03-27T10:45:05.928Z,10.44
2019-03-27T10:46:05.892Z,10.48
2019-03-27T10:47:05.879Z,10.53
2019-03-27T10:48:05.867Z,10.64
2019-03-27T10:49:05.855Z,10.59
2019-03-27T10:50:16.921Z,10.59
2019-03-27T10:51:06.862Z,10.60
2019-03-27T10:52:05.822Z,10.68
2019-03-27T10:53:05.815Z,10.71
2019-03-27T10:54:05.802Z,10.64
2019-03-27T10:55:05.790Z,10.66
2019-03-27T10:56:05.781Z,10.67
2019-03-27T10:57:05.806Z,10.70
2019-03-27T10:58:05.754Z,10.76
2019-03-27T10:59:05.746Z,10.89
2019-03-27T11:00:05.732Z,10.86
2019-03-27T11:01:07.334Z,10.91
2019-03-27T11:02:05.708Z,10.96
2019-03-27T11:03:05.727Z,10.89
2019-03-27T11:04:05.686Z,11.03
2019-03-27T11:05:05.674Z,11.00
2019-03-27T11:06:05.665Z,11.33
2019-03-27T11:07:05.652Z,11.58
2019-03-27T11:08:05.642Z,11.52
2019-03-27T11:09:05.647Z,11.44
2019-03-27T11:10:05.618Z,11.36
2019-03-27T11:11:05.606Z,11.43
2019-03-27T11:12:05.598Z,11.27
2019-03-27T11:13:05.589Z,11.29
2019-03-27T11:14:05.601Z,11.29
2019-03-27T11:15:05.563Z,11.36
2019-03-27T11:16:05.556Z,11.47
2019-03-27T11:17:05.543Z,11.64
2019-03-27T11:18:05.527Z,11.70
2019-03-27T11:19:05.517Z,11.79
2019-03-27T11:20:05.534Z,11.85
2019-03-27T11:21:05.493Z,11.73
2019-03-27T11:22:05.482Z,11.69
2019-03-27T11:23:05.470Z,11.65
2019-03-27T11:24:05.461Z,11.60
2019-03-27T11:25:05.448Z,11.39
2019-03-27T11:26:05.455Z,11.33
2019-03-27T11:27:05.459Z,11.22
2019-03-27T11:28:05.418Z,11.18
2019-03-27T11:29:05.403Z,11.22
2019-03-27T11:30:05.391Z,11.14
2019-03-27T11:31:05.420Z,11.06
2019-03-27T11:32:05.375Z,11.03
2019-03-27T11:33:05.359Z,11.04
2019-03-27T11:34:05.366Z,11.07
2019-03-27T11:35:05.353Z,11.02
2019-03-27T11:36:05.343Z,10.97
2019-03-27T11:37:05.376Z,10.99
2019-03-27T11:38:05.321Z,10.89
2019-03-27T11:39:05.299Z,10.99
2019-03-27T11:40:05.282Z,10.88
2019-03-27T11:41:05.269Z,10.91
2019-03-27T11:42:05.282Z,10.88
2019-03-27T11:43:05.247Z,10.92
2019-03-27T11:44:05.234Z,10.96
2019-03-27T11:45:05.222Z,11.00
2019-03-27T11:46:13.727Z,10.84
2019-03-27T11:47:05.217Z,10.88
2019-03-27T11:48:08.043Z,10.92
2019-03-27T11:49:05.182Z,10.99
2019-03-27T11:50:05.173Z,11.02
2019-03-27T11:51:05.157Z,11.11
2019-03-27T11:52:05.180Z,11.22
2019-03-27T11:53:05.133Z,11.18
2019-03-27T11:54:05.123Z,11.11
2019-03-27T11:55:05.114Z,11.14
2019-03-27T11:56:05.097Z,11.04
2019-03-27T11:57:05.087Z,11.00
2019-03-27T11:58:05.105Z,10.91
2019-03-27T11:59:05.067Z,10.97
2019-03-27T12:00:05.054Z,10.96
2019-03-27T12:01:05.047Z,11.07
2019-03-27T12:02:05.030Z,11.11
2019-03-27T12:03:05.022Z,11.19
2019-03-27T12:04:05.026Z,11.32
2019-03-27T12:05:04.999Z,11.43
2019-03-27T12:06:04.986Z,11.40
2019-03-27T12:07:04.974Z,11.40
2019-03-27T12:08:04.966Z,11.37
2019-03-27T12:09:04.979Z,11.36
2019-03-27T12:10:04.945Z,11.36
2019-03-27T12:11:04.928Z,11.49
2019-03-27T12:12:04.918Z,11.57
2019-03-27T12:13:04.908Z,11.61
2019-03-27T12:14:04.894Z,11.62
2019-03-27T12:15:04.900Z,11.57
2019-03-27T12:16:04.872Z,11.61
2019-03-27T12:17:04.862Z,11.49
2019-03-27T12:18:04.849Z,11.46
2019-03-27T12:19:04.841Z,11.40
2019-03-27T12:20:04.856Z,11.37
2019-03-27T12:21:04.815Z,11.39
2019-03-27T12:22:04.806Z,11.25
2019-03-27T12:23:04.793Z,11.24
2019-03-27T12:24:04.783Z,11.32
2019-03-27T12:25:04.771Z,11.29
2019-03-27T12:26:04.775Z,11.46
2019-03-27T12:27:04.753Z,11.49
2019-03-27T12:28:04.739Z,11.60
2019-03-27T12:29:04.729Z,11.60
2019-03-27T12:30:04.715Z,11.52
2019-03-27T12:31:04.731Z,11.64
2019-03-27T12:32:04.693Z,11.67
2019-03-27T12:33:04.685Z,11.62
2019-03-27T12:34:04.672Z,11.62
2019-03-27T12:35:04.659Z,11.54
2019-03-27T12:36:04.647Z,11.57
2019-03-27T12:37:04.650Z,11.55
2019-03-27T12:38:04.647Z,11.49
2019-03-27T12:39:04.614Z,11.46
2019-03-27T12:40:11.333Z,11.43
2019-03-27T12:41:05.588Z,11.29
2019-03-27T12:42:04.595Z,11.22
2019-03-27T12:43:04.570Z,11.18
2019-03-27T12:44:04.560Z,11.03
2019-03-27T12:45:04.545Z,11.03
2019-03-27T12:46:04.544Z,11.00
2019-03-27T12:47:04.550Z,11.02
2019-03-27T12:48:04.511Z,10.91
2019-03-27T12:49:04.500Z,10.94
2019-03-27T12:50:04.497Z,10.97
2019-03-27T12:51:12.825Z,10.97
2019-03-27T12:52:05.688Z,10.92
2019-03-27T12:53:04.454Z,10.92
2019-03-27T12:54:04.446Z,10.92
2019-03-27T12:55:04.434Z,10.84
2019-03-27T12:56:04.425Z,10.78
2019-03-27T12:57:04.414Z,10.86
2019-03-27T12:58:04.426Z,10.73
2019-03-27T12:59:04.388Z,10.76
2019-03-27T13:00:04.374Z,10.86
2019-03-27T13:01:04.366Z,10.85
2019-03-27T13:02:04.354Z,10.88
2019-03-27T13:03:04.342Z,11.07
2019-03-27T13:04:04.348Z,11.11
2019-03-27T13:05:04.319Z,11.24
2019-03-27T13:06:04.309Z,11.37
2019-03-27T13:07:04.297Z,11.51
2019-03-27T13:08:04.286Z,11.51
2019-03-27T13:09:04.293Z,11.57
2019-03-27T13:10:04.264Z,11.67
2019-03-27T13:11:04.255Z,11.67